createdAt,value
2023-04-05T00:01:12.277Z,5.29
2023-04-05T00:03:41.124Z,5.27
2023-04-05T00:06:13.404Z,5.16
2023-04-05T00:08:41.322Z,5.12
2023-04-05T00:11:10.795Z,5.14
2023-04-05T00:13:41.782Z,5.16
2023-04-05T00:16:10.043Z,5.14
2023-04-05T00:18:38.623Z,5.16
2023-04-05T00:21:07.193Z,5.09
2023-04-05T00:23:38.634Z,5.04
2023-04-05T00:26:06.839Z,5.08
2023-04-05T00:28:36.463Z,5.07
2023-04-05T00:31:05.063Z,5.02
2023-04-05T00:33:33.017Z,4.94
2023-04-05T00:36:10.672Z,4.93
2023-04-05T00:38:38.778Z,4.89
2023-04-05T00:41:06.964Z,4.85
2023-04-05T00:43:36.996Z,4.86
2023-04-05T00:46:05.618Z,4.83
2023-04-05T00:48:34.074Z,4.83
2023-04-05T00:51:02.016Z,4.80
2023-04-05T00:53:30.604Z,4.77
2023-04-05T00:55:59.115Z,4.78
2023-04-05T00:58:27.360Z,4.81
2023-04-05T01:01:03.829Z,4.74
2023-04-05T01:03:34.810Z,4.71
2023-04-05T01:06:17.434Z,4.62
2023-04-05T01:08:53.552Z,4.60
2023-04-05T01:11:22.341Z,4.56
2023-04-05T01:13:51.032Z,4.58
2023-04-05T01:16:20.676Z,4.58
2023-04-05T01:18:48.578Z,4.60
2023-04-05T01:21:38.214Z,4.58
2023-04-05T01:24:17.414Z,4.55
2023-04-05T01:26:57.760Z,4.52
2023-04-05T01:29:46.510Z,4.51
2023-04-05T01:32:23.040Z,4.42
2023-04-05T01:34:55.167Z,4.38
2023-04-05T01:37:28.864Z,4.42
2023-04-05T01:39:57.154Z,4.32
2023-04-05T01:42:26.781Z,4.21
2023-04-05T01:44:57.726Z,4.22
2023-04-05T01:47:25.916Z,4.21
2023-04-05T01:49:53.813Z,4.21
2023-04-05T01:52:21.877Z,4.26
2023-04-05T01:54:49.839Z,4.35
2023-04-05T01:57:17.799Z,4.35
2023-04-05T01:59:45.735Z,4.31
2023-04-05T02:02:14.980Z,4.29
2023-04-05T02:04:43.600Z,4.27
2023-04-05T02:07:11.545Z,4.25
2023-04-05T02:09:39.398Z,4.20
2023-04-05T02:12:07.425Z,4.22
2023-04-05T02:14:36.655Z,4.11
2023-04-05T02:17:04.634Z,4.15
2023-04-05T02:19:37.360Z,4.12
2023-04-05T02:22:05.297Z,4.14
2023-04-05T02:24:33.426Z,4.17
2023-04-05T02:27:01.559Z,4.17
2023-04-05T02:29:29.508Z,4.06
2023-04-05T02:31:57.423Z,4.03
2023-04-05T02:34:26.296Z,3.96
2023-04-05T02:36:56.113Z,4.02
2023-04-05T02:39:24.479Z,3.96
2023-04-05T02:41:52.364Z,3.89
2023-04-05T02:44:20.430Z,3.81
2023-04-05T02:46:48.675Z,3.68
2023-04-05T02:49:16.789Z,3.74
2023-04-05T02:51:44.921Z,3.70
2023-04-05T02:54:14.651Z,3.69
2023-04-05T02:56:42.932Z,3.67
2023-04-05T02:59:11.043Z,3.68
2023-04-05T03:01:44.476Z,3.62
2023-04-05T03:04:14.682Z,3.64
2023-04-05T03:06:46.455Z,3.55
2023-04-05T03:09:15.852Z,3.57
2023-04-05T03:11:43.933Z,3.59
2023-04-05T03:14:12.524Z,3.52
2023-04-05T03:16:40.650Z,3.55
2023-04-05T03:19:09.186Z,3.56
2023-04-05T03:21:37.284Z,3.54
2023-04-05T03:24:05.810Z,3.52
2023-04-05T03:26:35.797Z,3.54
2023-04-05T03:29:03.969Z,3.41
2023-04-05T03:31:34.820Z,3.53
2023-04-05T03:34:02.853Z,3.53
2023-04-05T03:36:42.572Z,3.52
2023-04-05T03:39:11.280Z,3.55
2023-04-05T03:41:43.868Z,3.58
2023-04-05T03:44:12.160Z,3.60
2023-04-05T03:46:40.677Z,3.64
2023-04-05T03:49:10.900Z,3.65
2023-04-05T03:51:38.997Z,3.68
2023-04-05T03:54:07.632Z,3.65
2023-04-05T03:56:36.350Z,3.65
2023-04-05T03:59:06.196Z,3.73
2023-04-05T04:01:34.180Z,3.77
2023-04-05T04:04:02.194Z,3.79
2023-04-05T04:06:30.923Z,3.81
2023-04-05T04:08:59.004Z,3.80
2023-04-05T04:11:27.306Z,3.83
2023-04-05T04:13:55.287Z,3.82
2023-04-05T04:16:26.022Z,3.85
2023-04-05T04:18:56.079Z,3.83
2023-04-05T04:21:25.437Z,3.81
2023-04-05T04:23:53.649Z,3.82
2023-04-05T04:26:27.069Z,3.79
2023-04-05T04:28:55.116Z,3.76
2023-04-05T04:31:25.236Z,3.82
2023-04-05T04:33:53.516Z,3.81
2023-04-05T04:36:35.128Z,3.86
2023-04-05T04:39:06.375Z,3.88
2023-04-05T04:41:36.159Z,3.88
2023-04-05T04:44:04.445Z,3.89
2023-04-05T04:46:42.909Z,3.96
2023-04-05T04:49:11.329Z,4.00
2023-04-05T04:51:40.091Z,4.00
2023-04-05T04:54:08.993Z,4.04
2023-04-05T04:56:36.925Z,4.09
2023-04-05T04:59:04.906Z,4.12
2023-04-05T05:01:35.444Z,4.05
2023-04-05T05:04:04.563Z,4.04
2023-04-05T05:06:36.752Z,4.13
2023-04-05T05:09:04.986Z,4.25
2023-04-05T05:11:33.445Z,4.34
2023-04-05T05:14:01.349Z,4.22
2023-04-05T05:16:32.052Z,4.31
2023-04-05T05:19:01.615Z,4.42
2023-04-05T05:21:32.129Z,4.54
2023-04-05T05:24:00.138Z,4.49
2023-04-05T05:26:28.217Z,4.60
2023-04-05T05:28:56.503Z,4.77
2023-04-05T05:31:24.940Z,4.66
2023-04-05T05:33:53.141Z,4.65
2023-04-05T05:36:23.350Z,4.87
2023-04-05T05:38:54.303Z,5.04
2023-04-05T05:41:24.658Z,5.00
2023-04-05T05:43:54.011Z,4.85
2023-04-05T05:46:22.337Z,4.89
2023-04-05T05:48:50.613Z,4.98
2023-04-05T05:51:18.688Z,4.93
2023-04-05T05:53:48.393Z,4.97
2023-04-05T05:56:16.376Z,5.14
2023-04-05T05:58:44.820Z,5.33
2023-04-05T06:01:13.319Z,5.41
2023-04-05T06:03:41.740Z,5.44
2023-04-05T06:06:11.288Z,5.51
2023-04-05T06:08:39.471Z,5.69
2023-04-05T06:11:08.841Z,5.86
2023-04-05T06:13:37.879Z,5.81
2023-04-05T06:16:06.578Z,5.86
2023-04-05T06:18:34.581Z,5.91
2023-04-05T06:21:02.675Z,6.09
2023-04-05T06:23:30.844Z,6.33
2023-04-05T06:25:58.812Z,6.52
2023-04-05T06:28:28.770Z,6.57
2023-04-05T06:30:59.306Z,6.59
2023-04-05T06:33:27.844Z,6.43
2023-04-05T06:35:56.725Z,6.09
2023-04-05T06:38:24.737Z,6.07
2023-04-05T06:40:52.625Z,6.22
2023-04-05T06:43:20.675Z,6.24
2023-04-05T06:45:50.294Z,6.24
2023-04-05T06:48:18.402Z,6.22
2023-04-05T06:50:46.365Z,6.30
2023-04-05T06:53:18.305Z,6.49
2023-04-05T06:55:50.520Z,6.67
2023-04-05T06:58:18.633Z,6.57
2023-04-05T07:00:47.372Z,6.46
2023-04-05T07:03:16.833Z,6.67
2023-04-05T07:05:53.210Z,6.76
2023-04-05T07:08:22.181Z,6.76
2023-04-05T07:10:51.293Z,6.86
2023-04-05T07:13:21.135Z,6.92
2023-04-05T07:15:49.258Z,6.93
2023-04-05T07:18:19.250Z,6.77
2023-04-05T07:20:48.900Z,6.57
2023-04-05T07:23:18.281Z,5.63
2023-04-05T07:25:46.457Z,7.09
2023-04-05T07:28:14.528Z,9.43
2023-04-05T07:30:42.554Z,10.79
2023-04-05T07:33:11.195Z,12.86
2023-04-05T07:35:43.596Z,13.31
2023-04-05T07:38:11.674Z,14.23
2023-04-05T07:40:39.905Z,15.26
2023-04-05T07:43:10.399Z,15.72
2023-04-05T07:45:38.296Z,16.19
2023-04-05T07:48:06.468Z,17.41
2023-04-05T07:50:36.365Z,18.35
2023-04-05T07:53:05.758Z,18.79
2023-04-05T07:55:33.958Z,19.23
2023-04-05T07:58:04.496Z,19.87
2023-04-05T08:00:32.398Z,20.70
2023-04-05T08:03:02.041Z,21.14
2023-04-05T08:05:30.595Z,21.61
2023-04-05T08:07:59.156Z,22.38
2023-04-05T08:10:28.475Z,22.50
2023-04-05T08:12:56.445Z,22.24
2023-04-05T08:15:24.386Z,22.48
2023-04-05T08:17:52.486Z,22.95
2023-04-05T08:20:20.440Z,23.16
2023-04-05T08:22:48.585Z,23.62
2023-04-05T08:25:16.536Z,23.82
2023-04-05T08:27:46.130Z,23.94
2023-04-05T08:30:14.178Z,24.13
2023-04-05T08:32:42.236Z,24.19
2023-04-05T08:35:10.961Z,24.25
2023-04-05T08:37:38.767Z,23.91
2023-04-05T08:40:08.561Z,23.95
2023-04-05T08:42:41.590Z,23.74
2023-04-05T08:45:12.733Z,24.11
2023-04-05T08:47:40.848Z,24.57
2023-04-05T08:50:13.989Z,24.81
2023-04-05T08:52:43.420Z,25.17
2023-04-05T08:55:11.804Z,25.08
2023-04-05T08:57:43.529Z,24.66
2023-04-05T09:00:14.471Z,24.80
2023-04-05T09:02:46.213Z,24.63
2023-04-05T09:05:15.213Z,24.19
2023-04-05T09:07:44.183Z,24.61
2023-04-05T09:10:15.121Z,24.31
2023-04-05T09:12:43.146Z,24.23
2023-04-05T09:15:13.017Z,24.48
2023-04-05T09:17:44.924Z,24.47
2023-04-05T09:20:13.020Z,24.62
2023-04-05T09:22:51.374Z,25.02
2023-04-05T09:25:39.736Z,23.96
2023-04-05T09:28:08.176Z,23.54
2023-04-05T09:30:38.373Z,23.41
2023-04-05T09:33:10.444Z,22.98
2023-04-05T09:35:38.978Z,22.59
2023-04-05T09:38:08.415Z,21.49
2023-04-05T09:40:48.369Z,19.84
2023-04-05T09:43:40.028Z,18.45
2023-04-05T09:46:29.831Z,18.08
2023-04-05T09:48:58.173Z,17.62
2023-04-05T09:51:34.060Z,17.24
2023-04-05T09:54:04.833Z,16.98
2023-04-05T09:56:36.048Z,17.10
2023-04-05T09:59:07.872Z,16.89
2023-04-05T10:01:41.006Z,16.44
2023-04-05T10:04:10.187Z,16.24
2023-04-05T10:06:40.106Z,16.31
2023-04-05T10:09:11.284Z,16.44
2023-04-05T10:11:40.499Z,16.61
2023-04-05T10:14:11.485Z,16.25
2023-04-05T10:16:51.772Z,15.87
2023-04-05T10:19:28.025Z,15.75
2023-04-05T10:22:01.580Z,15.32
2023-04-05T10:24:36.793Z,14.96
2023-04-05T10:27:10.218Z,14.82
2023-04-05T10:29:48.854Z,15.41
2023-04-05T10:32:28.602Z,15.87
2023-04-05T10:35:01.932Z,16.09
2023-04-05T10:37:40.230Z,16.19
2023-04-05T10:40:10.512Z,15.70
2023-04-05T10:42:43.270Z,15.72
2023-04-05T10:45:15.536Z,15.58
2023-04-05T10:47:51.627Z,15.26
2023-04-05T10:50:23.763Z,14.97
2023-04-05T10:52:52.606Z,14.69
2023-04-05T10:55:21.986Z,13.87
2023-04-05T10:57:51.480Z,13.64
2023-04-05T11:00:20.544Z,13.60
2023-04-05T11:02:54.902Z,13.57
2023-04-05T11:05:36.088Z,13.31
2023-04-05T11:08:08.368Z,13.10
2023-04-05T11:10:38.029Z,13.18
2023-04-05T11:13:10.841Z,13.14
2023-04-05T11:15:39.232Z,13.12
2023-04-05T11:18:11.170Z,13.04
2023-04-05T11:20:48.442Z,13.07
2023-04-05T11:23:20.508Z,13.20
2023-04-05T11:25:52.815Z,13.11
2023-04-05T11:28:25.892Z,13.04
2023-04-05T11:30:57.155Z,13.01
2023-04-05T11:33:40.003Z,13.08
2023-04-05T11:36:08.888Z,13.14
2023-04-05T11:38:36.860Z,13.14
2023-04-05T11:41:12.486Z,13.25
2023-04-05T11:43:42.268Z,13.24
2023-04-05T11:46:10.443Z,13.33
2023-04-05T11:48:42.138Z,13.59
2023-04-05T11:51:11.563Z,13.89
2023-04-05T11:53:39.832Z,13.81
2023-04-05T11:56:10.180Z,14.10
2023-04-05T11:58:40.929Z,14.25
2023-04-05T12:01:10.317Z,14.30
2023-04-05T12:03:39.754Z,14.16
2023-04-05T12:06:09.034Z,14.29
2023-04-05T12:08:42.590Z,13.78
2023-04-05T12:11:12.302Z,13.67
2023-04-05T12:13:40.724Z,13.75
2023-04-05T12:16:13.103Z,13.63
2023-04-05T12:18:42.405Z,13.67
2023-04-05T12:21:12.564Z,13.71
2023-04-05T12:23:40.637Z,13.72
2023-04-05T12:26:09.664Z,13.58
2023-04-05T12:28:54.122Z,13.47
2023-04-05T12:31:44.930Z,12.82
2023-04-05T12:34:15.965Z,12.55
2023-04-05T12:36:46.183Z,12.84
2023-04-05T12:39:14.067Z,13.08
2023-04-05T12:41:43.379Z,13.16
2023-04-05T12:44:18.978Z,13.27
2023-04-05T12:46:48.070Z,13.29
2023-04-05T12:49:19.448Z,13.44
2023-04-05T12:51:48.876Z,13.36
2023-04-05T12:54:22.214Z,13.38
2023-04-05T12:56:53.205Z,13.62
2023-04-05T12:59:21.315Z,13.79
2023-04-05T13:01:49.874Z,13.86
2023-04-05T13:04:19.842Z,14.08
2023-04-05T13:06:48.232Z,14.28
2023-04-05T13:09:16.210Z,14.43
2023-04-05T13:11:44.282Z,14.54
2023-04-05T13:14:12.253Z,14.54
2023-04-05T13:16:40.249Z,14.49
2023-04-05T13:19:08.552Z,14.44
2023-04-05T13:21:38.036Z,14.32
2023-04-05T13:24:06.310Z,13.88
2023-04-05T13:26:34.997Z,13.73
2023-04-05T13:29:03.867Z,13.79
2023-04-05T13:31:33.672Z,14.06
2023-04-05T13:34:01.896Z,14.17
2023-04-05T13:36:29.743Z,14.10
2023-04-05T13:38:58.973Z,14.22
2023-04-05T13:41:27.375Z,14.36
2023-04-05T13:43:55.287Z,14.29
2023-04-05T13:46:23.261Z,14.22
2023-04-05T13:48:51.412Z,14.08
2023-04-05T13:51:19.389Z,14.14
2023-04-05T13:53:47.350Z,14.26
2023-04-05T13:56:16.768Z,14.09
2023-04-05T13:58:45.182Z,14.05
2023-04-05T14:01:13.407Z,13.87
2023-04-05T14:03:41.692Z,13.74
2023-04-05T14:06:09.725Z,13.63
2023-04-05T14:08:37.643Z,13.24
2023-04-05T14:11:05.796Z,13.10
2023-04-05T14:13:35.127Z,13.12
2023-04-05T14:16:06.361Z,13.21
2023-04-05T14:18:34.484Z,13.28
2023-04-05T14:21:02.628Z,13.29
2023-04-05T14:23:32.715Z,13.36
2023-04-05T14:26:01.162Z,13.22
2023-04-05T14:28:29.084Z,13.18
2023-04-05T14:30:59.619Z,13.16
2023-04-05T14:33:28.157Z,13.15
2023-04-05T14:35:57.484Z,13.19
2023-04-05T14:38:26.365Z,13.45
2023-04-05T14:40:58.209Z,13.51
2023-04-05T14:43:26.897Z,13.58
2023-04-05T14:45:57.633Z,13.60
2023-04-05T14:48:28.241Z,13.56
2023-04-05T14:50:58.454Z,13.45
2023-04-05T14:53:26.796Z,13.54
2023-04-05T14:55:55.087Z,13.45
2023-04-05T14:58:23.548Z,13.41
2023-04-05T15:00:52.035Z,13.51
2023-04-05T15:03:24.170Z,13.65
2023-04-05T15:05:54.647Z,13.68
2023-04-05T15:08:22.803Z,13.46
2023-04-05T15:10:51.090Z,13.34
2023-04-05T15:13:22.018Z,13.23
2023-04-05T15:15:50.284Z,13.20
2023-04-05T15:18:18.322Z,13.09
2023-04-05T15:20:46.614Z,12.93
2023-04-05T15:23:27.614Z,12.92
2023-04-05T15:25:55.863Z,12.79
2023-04-05T15:28:23.884Z,12.69
2023-04-05T15:30:52.420Z,12.79
2023-04-05T15:33:22.438Z,12.68
2023-04-05T15:35:57.091Z,12.66
2023-04-05T15:38:27.416Z,12.74
2023-04-05T15:40:59.113Z,12.87
2023-04-05T15:43:27.172Z,12.94
2023-04-05T15:45:55.224Z,12.81
2023-04-05T15:48:23.821Z,12.84
2023-04-05T15:50:51.855Z,12.92
2023-04-05T15:53:20.266Z,12.83
2023-04-05T15:55:50.259Z,12.91
2023-04-05T15:58:18.154Z,12.85
2023-04-05T16:00:46.352Z,12.80
2023-04-05T16:03:14.614Z,12.73
2023-04-05T16:05:42.859Z,12.71
2023-04-05T16:08:11.460Z,12.62
2023-04-05T16:10:39.438Z,12.53
2023-04-05T16:13:08.795Z,12.47
2023-04-05T16:15:36.712Z,12.42
2023-04-05T16:18:09.236Z,12.26
2023-04-05T16:20:37.487Z,12.23
2023-04-05T16:23:10.301Z,12.20
2023-04-05T16:25:38.301Z,12.24
2023-04-05T16:28:07.443Z,12.32
2023-04-05T16:30:39.840Z,12.34
2023-04-05T16:33:07.991Z,12.26
2023-04-05T16:35:36.054Z,12.24
2023-04-05T16:38:07.491Z,12.28
2023-04-05T16:40:35.677Z,12.20
2023-04-05T16:43:04.631Z,12.23
2023-04-05T16:45:36.846Z,12.02
2023-04-05T16:48:08.845Z,12.06
2023-04-05T16:50:37.447Z,11.90
2023-04-05T16:53:08.663Z,11.93
2023-04-05T16:55:39.713Z,11.88
2023-04-05T16:58:07.990Z,11.80
2023-04-05T17:00:37.354Z,11.62
2023-04-05T17:03:09.986Z,11.74
2023-04-05T17:05:38.438Z,11.79
2023-04-05T17:08:06.434Z,11.71
2023-04-05T17:10:36.325Z,11.71
2023-04-05T17:13:07.104Z,11.78
2023-04-05T17:15:35.039Z,11.71
2023-04-05T17:18:05.717Z,11.72
2023-04-05T17:20:35.178Z,11.69
2023-04-05T17:23:06.281Z,11.56
2023-04-05T17:25:34.355Z,11.52
2023-04-05T17:28:06.887Z,11.54
2023-04-05T17:30:34.792Z,11.65
2023-04-05T17:33:03.365Z,11.54
2023-04-05T17:35:31.423Z,11.45
2023-04-05T17:38:04.450Z,11.43
2023-04-05T17:40:32.480Z,11.22
2023-04-05T17:43:00.788Z,11.25
2023-04-05T17:45:28.784Z,11.26
2023-04-05T17:47:56.838Z,11.19
2023-04-05T17:50:25.118Z,11.15
2023-04-05T17:52:53.085Z,11.18
2023-04-05T17:55:22.501Z,11.17
2023-04-05T17:57:50.443Z,11.23
2023-04-05T18:00:19.153Z,11.04
2023-04-05T18:02:47.131Z,11.08
2023-04-05T18:05:15.619Z,10.94
2023-04-05T18:07:44.117Z,10.94
2023-04-05T18:10:12.682Z,10.94
2023-04-05T18:12:41.963Z,10.89
2023-04-05T18:15:10.364Z,10.88
2023-04-05T18:17:38.430Z,10.77
2023-04-05T18:20:10.098Z,10.79
2023-04-05T18:22:38.224Z,10.75
2023-04-05T18:25:08.663Z,10.60
2023-04-05T18:27:36.844Z,10.58
2023-04-05T18:30:09.670Z,10.60
2023-04-05T18:32:37.882Z,10.58
2023-04-05T18:35:06.537Z,10.51
2023-04-05T18:37:34.565Z,10.45
2023-04-05T18:40:05.078Z,10.38
2023-04-05T18:42:33.320Z,10.37
2023-04-05T18:45:01.534Z,10.21
2023-04-05T18:47:30.886Z,10.21
2023-04-05T18:49:58.830Z,10.22
2023-04-05T18:52:33.340Z,10.03
2023-04-05T18:55:01.562Z,9.93
2023-04-05T18:57:29.494Z,10.00
2023-04-05T18:59:57.539Z,9.96
2023-04-05T19:02:25.519Z,10.01
2023-04-05T19:04:55.593Z,10.08
2023-04-05T19:07:23.824Z,10.15
2023-04-05T19:09:51.718Z,9.96
2023-04-05T19:12:19.660Z,10.07
2023-04-05T19:14:47.688Z,10.12
2023-04-05T19:17:18.396Z,9.99
2023-04-05T19:19:46.364Z,9.77
2023-04-05T19:22:15.814Z,9.76
2023-04-05T19:24:45.285Z,9.68
2023-04-05T19:27:13.240Z,9.45
2023-04-05T19:29:41.283Z,9.44
2023-04-05T19:32:12.055Z,9.35
2023-04-05T19:34:40.054Z,9.37
2023-04-05T19:37:11.743Z,9.31
2023-04-05T19:39:42.479Z,9.41
2023-04-05T19:42:11.571Z,9.45
2023-04-05T19:44:57.732Z,9.41
2023-04-05T19:47:26.879Z,9.27
2023-04-05T19:49:57.299Z,9.23
2023-04-05T19:52:36.895Z,9.00
2023-04-05T19:55:33.156Z,9.06
2023-04-05T19:58:10.232Z,9.00
2023-04-05T20:00:42.278Z,8.91
2023-04-05T20:03:28.916Z,8.88
2023-04-05T20:06:05.641Z,8.88
2023-04-05T20:08:36.228Z,8.80
2023-04-05T20:11:10.920Z,8.77
2023-04-05T20:13:47.405Z,8.64
2023-04-05T20:16:16.635Z,8.74
2023-04-05T20:18:51.380Z,8.66
2023-04-05T20:21:20.230Z,8.66
2023-04-05T20:23:48.128Z,8.55
2023-04-05T20:26:18.926Z,8.63
2023-04-05T20:28:54.266Z,8.67
2023-04-05T20:31:24.305Z,8.54
2023-04-05T20:33:54.807Z,8.53
2023-04-05T20:36:24.977Z,8.62
2023-04-05T20:38:52.889Z,8.61
2023-04-05T20:41:22.265Z,8.62
2023-04-05T20:43:50.505Z,8.66
2023-04-05T20:46:18.781Z,8.65
2023-04-05T20:48:47.497Z,8.68
2023-04-05T20:51:17.078Z,8.61
2023-04-05T20:53:45.052Z,8.55
2023-04-05T20:56:13.460Z,8.50
2023-04-05T20:58:43.710Z,8.43
2023-04-05T21:01:11.950Z,8.44
2023-04-05T21:03:41.555Z,8.41
2023-04-05T21:06:10.846Z,8.42
2023-04-05T21:08:41.339Z,8.35
2023-04-05T21:11:10.876Z,8.34
2023-04-05T21:13:39.180Z,8.39
2023-04-05T21:16:09.674Z,8.37
2023-04-05T21:18:39.112Z,8.26
2023-04-05T21:21:07.337Z,8.24
2023-04-05T21:23:35.751Z,8.21
2023-04-05T21:26:04.501Z,8.17
2023-04-05T21:28:32.805Z,8.17
2023-04-05T21:31:01.007Z,8.20
2023-04-05T21:33:30.668Z,8.14
2023-04-05T21:35:58.819Z,8.10
2023-04-05T21:38:27.211Z,8.09
2023-04-05T21:40:55.814Z,8.15
2023-04-05T21:43:26.108Z,8.10
2023-04-05T21:45:54.085Z,8.12
2023-04-05T21:48:22.162Z,8.13
2023-04-05T21:50:51.557Z,8.11
2023-04-05T21:53:19.887Z,8.08
2023-04-05T21:55:48.182Z,8.09
2023-04-05T21:58:16.641Z,8.08
2023-04-05T22:00:44.925Z,8.06
2023-04-05T22:03:13.134Z,8.03
2023-04-05T22:05:41.864Z,8.02
2023-04-05T22:08:11.736Z,7.97
2023-04-05T22:10:40.101Z,7.96
2023-04-05T22:13:07.997Z,7.91
2023-04-05T22:15:35.941Z,7.92
2023-04-05T22:18:05.698Z,7.80
2023-04-05T22:20:33.952Z,7.82
2023-04-05T22:23:02.030Z,7.86
2023-04-05T22:25:34.287Z,7.81
2023-04-05T22:28:02.263Z,7.77
2023-04-05T22:30:43.817Z,7.77
2023-04-05T22:33:13.804Z,7.72
2023-04-05T22:35:42.725Z,7.71
2023-04-05T22:38:10.919Z,7.56
2023-04-05T22:40:40.913Z,7.55
2023-04-05T22:43:09.855Z,7.48
2023-04-05T22:45:37.840Z,7.29
2023-04-05T22:48:06.590Z,7.30
2023-04-05T22:50:34.823Z,7.32
2023-04-05T22:53:02.926Z,7.33
2023-04-05T22:55:31.339Z,7.19
2023-04-05T22:58:01.306Z,7.19
2023-04-05T23:00:30.965Z,7.17
2023-04-05T23:02:58.943Z,7.15
2023-04-05T23:05:27.171Z,7.16
2023-04-05T23:07:55.213Z,7.11
2023-04-05T23:10:23.587Z,7.02
2023-04-05T23:12:51.632Z,7.03
2023-04-05T23:15:21.289Z,6.94
2023-04-05T23:17:50.271Z,6.84
2023-04-05T23:20:18.446Z,6.82
2023-04-05T23:22:46.550Z,6.78
2023-04-05T23:25:14.671Z,6.65
2023-04-05T23:27:42.846Z,6.57
2023-04-05T23:30:11.772Z,6.56
2023-04-05T23:32:41.504Z,6.46
2023-04-05T23:35:10.577Z,6.42
2023-04-05T23:37:38.513Z,6.42
2023-04-05T23:40:08.303Z,6.24
2023-04-05T23:42:36.410Z,6.31
2023-04-05T23:45:07.343Z,6.33
2023-04-05T23:47:37.326Z,6.36
2023-04-05T23:50:08.187Z,6.30
2023-04-05T23:52:36.311Z,6.33
2023-04-05T23:55:04.503Z,6.33
2023-04-05T23:57:32.669Z,6.25
